Time;durP1;ratioP1;P1;durP2;ratioP2;P2;SDS_P1;SDS_P2;PMS_P1;PMS_P2;Temp;Humidity;BMP_temperature;BMP_pressure;BME280_temperature;BME280_humidity;BME280_pressure;Samples;Min_cycle;Max_cycle;Signal;HPM_P1;HPM_P2
2022/04/21 00:00:04;;;;;;;;;;;5.40;99.90;;;;;;5002065;28;19921;-85
2022/04/21 00:02:51;;;;;;;;;;;5.30;99.90;;;;;;4991141;28;20039;-84
2022/04/21 00:05:38;;;;;;;;;;;5.20;99.90;;;;;;4988377;28;20019;-86
2022/04/21 00:08:25;;;;;;;;;;;5.10;99.90;;;;;;4992439;28;19942;-85
2022/04/21 00:11:12;;;;;;;;;;;5.10;99.90;;;;;;4989322;28;19922;-85
2022/04/21 00:13:59;;;;;;;;;;;5.20;99.90;;;;;;4999435;28;20361;-85
2022/04/21 00:16:46;;;;;;;;;;;5.10;99.90;;;;;;4986533;28;19922;-84
2022/04/21 00:19:36;;;;;;;;;;;5.30;99.90;;;;;;4967644;28;19922;-85
2022/04/21 00:25:29;;;;;;;;;;;5.40;99.90;;;;;;4977683;28;19930;-84
2022/04/21 00:28:16;;;;;;;;;;;5.50;99.90;;;;;;4970869;28;19933;-84
2022/04/21 00:31:04;;;;;;;;;;;5.50;99.90;;;;;;4991060;28;19976;-85
2022/04/21 00:33:51;;;;;;;;;;;5.50;99.90;;;;;;4973460;28;19922;-84
2022/04/21 00:36:38;;;;;;;;;;;5.50;99.90;;;;;;4974939;28;19926;-84
2022/04/21 00:39:26;;;;;;;;;;;5.50;99.90;;;;;;4992879;28;19925;-86
2022/04/21 00:42:13;;;;;;;;;;;5.40;99.90;;;;;;5010618;28;19921;-84
2022/04/21 00:45:05;;;;;;;;;;;5.40;99.90;;;;;;4984615;28;20327;-84
2022/04/21 00:47:53;;;;;;;;;;;5.30;99.90;;;;;;4995700;28;20272;-84
2022/04/21 00:50:41;;;;;;;;;;;5.30;99.90;;;;;;4992358;28;19921;-83
2022/04/21 00:53:28;;;;;;;;;;;5.20;99.90;;;;;;4994435;28;19941;-85
2022/04/21 00:56:17;;;;;;;;;;;5.00;99.90;;;;;;4990786;28;19940;-82
2022/04/21 00:59:08;;;;;;;;;;;4.90;99.90;;;;;;4996916;28;20001;-81
2022/04/21 01:05:03;;;;;;;;;;;4.90;99.90;;;;;;4994339;28;20319;-83
2022/04/21 01:07:50;;;;;;;;;;;4.80;99.90;;;;;;4989065;28;19988;-83
2022/04/21 01:10:38;;;;;;;;;;;4.70;99.90;;;;;;4991591;28;19921;-86
2022/04/21 01:13:25;;;;;;;;;;;4.50;99.90;;;;;;5000222;28;19933;-84
2022/04/21 01:16:12;;;;;;;;;;;4.30;99.90;;;;;;4987494;28;19929;-82
2022/04/21 01:19:02;;;;;;;;;;;4.30;99.90;;;;;;4994076;28;19926;-82
2022/04/21 01:21:49;;;;;;;;;;;4.30;99.90;;;;;;5003230;28;19922;-86
2022/04/21 01:24:36;;;;;;;;;;;4.20;99.90;;;;;;4999495;28;19941;-82
2022/04/21 01:27:26;;;;;;;;;;;4.30;99.90;;;;;;4998481;28;19922;-82
2022/04/21 01:30:13;;;;;;;;;;;4.40;99.90;;;;;;4985633;28;20280;-83
2022/04/21 01:33:00;;;;;;;;;;;4.40;99.90;;;;;;4986264;28;20020;-85
2022/04/21 01:35:47;;;;;;;;;;;4.30;99.90;;;;;;4981740;28;19932;-84
2022/04/21 01:41:40;;;;;;;;;;;4.00;99.90;;;;;;4991615;28;20025;-85
2022/04/21 01:44:27;;;;;;;;;;;3.90;99.90;;;;;;5004872;28;19956;-86
2022/04/21 01:47:16;;;;;;;;;;;3.80;99.90;;;;;;5014038;28;19921;-85
2022/04/21 01:50:07;;;;;;;;;;;3.70;99.90;;;;;;4991733;28;20267;-82
2022/04/21 01:52:56;;;;;;;;;;;3.50;99.90;;;;;;4978558;28;20007;-82
2022/04/21 01:55:46;;;;;;;;;;;3.50;99.90;;;;;;4990522;28;19993;-84
2022/04/21 01:58:35;;;;;;;;;;;3.60;99.90;;;;;;4993062;28;20311;-83
2022/04/21 02:01:22;;;;;;;;;;;3.70;99.90;;;;;;5005513;28;19940;-82
2022/04/21 02:04:12;;;;;;;;;;;3.80;99.90;;;;;;4996490;28;19922;-85
2022/04/21 02:07:03;;;;;;;;;;;3.80;99.90;;;;;;5005090;28;20284;-84
2022/04/21 02:09:50;;;;;;;;;;;3.80;99.90;;;;;;5011661;28;19972;-85
2022/04/21 02:12:37;;;;;;;;;;;3.90;99.90;;;;;;4993115;28;19922;-83
2022/04/21 02:15:26;;;;;;;;;;;3.80;99.90;;;;;;4991946;28;19932;-83
2022/04/21 02:18:13;;;;;;;;;;;3.80;99.90;;;;;;4993110;28;19921;-85
2022/04/21 02:21:01;;;;;;;;;;;3.70;99.90;;;;;;5009400;28;19925;-81
2022/04/21 02:23:48;;;;;;;;;;;3.60;99.90;;;;;;4992302;28;19929;-86
2022/04/21 02:26:35;;;;;;;;;;;3.50;99.90;;;;;;4986099;28;19928;-83
2022/04/21 02:29:22;;;;;;;;;;;3.30;99.90;;;;;;5002775;28;19988;-85
2022/04/21 02:32:09;;;;;;;;;;;3.30;99.90;;;;;;4995030;28;20350;-85
2022/04/21 02:34:56;;;;;;;;;;;3.30;99.90;;;;;;4994075;28;19922;-83
2022/04/21 02:37:44;;;;;;;;;;;3.30;99.90;;;;;;5004177;28;19933;-84
2022/04/21 02:40:31;;;;;;;;;;;3.30;99.90;;;;;;5007027;28;20231;-84
2022/04/21 02:43:18;;;;;;;;;;;3.20;99.90;;;;;;4996631;28;19922;-84
2022/04/21 02:46:05;;;;;;;;;;;3.30;99.90;;;;;;4990491;28;19925;-83
2022/04/21 02:48:53;;;;;;;;;;;3.30;99.90;;;;;;4997450;28;19940;-84
2022/04/21 02:51:41;;;;;;;;;;;3.30;99.90;;;;;;4997075;28;19925;-84
2022/04/21 02:57:34;;;;;;;;;;;3.40;99.90;;;;;;4997254;28;19922;-83
2022/04/21 03:00:24;;;;;;;;;;;3.40;99.90;;;;;;4965615;28;19922;-82
2022/04/21 03:03:11;;;;;;;;;;;3.30;99.90;;;;;;5003947;28;19928;-83
2022/04/21 03:06:01;;;;;;;;;;;3.20;99.90;;;;;;5007936;28;20016;-83
2022/04/21 03:08:50;;;;;;;;;;;3.20;99.90;;;;;;4995268;28;19922;-84
2022/04/21 03:11:38;;;;;;;;;;;3.20;99.90;;;;;;5007989;28;19953;-82
2022/04/21 03:14:25;;;;;;;;;;;3.30;99.90;;;;;;4991073;28;19960;-84
2022/04/21 03:17:14;;;;;;;;;;;3.40;99.90;;;;;;4980544;28;19933;-83
2022/04/21 03:20:02;;;;;;;;;;;3.40;99.90;;;;;;5004826;28;19922;-85
2022/04/21 03:25:55;;;;;;;;;;;3.10;99.90;;;;;;5002800;28;20323;-84
2022/04/21 03:28:43;;;;;;;;;;;3.10;99.90;;;;;;4996346;28;19932;-85
2022/04/21 03:31:31;;;;;;;;;;;3.00;99.90;;;;;;4963767;28;19922;-84
2022/04/21 03:34:19;;;;;;;;;;;2.90;99.90;;;;;;4995799;28;19929;-84
2022/04/21 03:37:15;;;;;;;;;;;2.80;99.90;;;;;;4996595;28;19932;-84
2022/04/21 03:40:02;;;;;;;;;;;2.80;99.90;;;;;;4996390;28;19922;-85
2022/04/21 03:42:49;;;;;;;;;;;2.60;99.90;;;;;;5000091;28;19929;-86
2022/04/21 03:45:39;;;;;;;;;;;2.60;99.90;;;;;;4971038;28;20352;-84
2022/04/21 03:48:26;;;;;;;;;;;2.60;99.90;;;;;;4991819;28;20432;-84
2022/04/21 03:51:15;;;;;;;;;;;2.60;99.90;;;;;;5001345;28;20008;-85
2022/04/21 03:54:04;;;;;;;;;;;2.70;99.90;;;;;;4983217;28;20325;-84
2022/04/21 03:56:51;;;;;;;;;;;2.80;99.90;;;;;;4990196;28;19933;-84
2022/04/21 03:59:38;;;;;;;;;;;2.90;99.90;;;;;;4997980;28;19922;-85
2022/04/21 04:02:27;;;;;;;;;;;2.90;99.90;;;;;;4992306;28;20090;-85
2022/04/21 04:05:15;;;;;;;;;;;2.90;99.90;;;;;;4996770;28;19933;-85
2022/04/21 04:11:10;;;;;;;;;;;2.80;99.90;;;;;;4991035;28;20021;-83
2022/04/21 04:13:58;;;;;;;;;;;2.80;99.90;;;;;;4982196;28;19925;-83
2022/04/21 04:16:45;;;;;;;;;;;2.70;99.90;;;;;;4995910;28;19952;-83
2022/04/21 04:19:33;;;;;;;;;;;2.80;99.90;;;;;;4990720;28;19977;-83
2022/04/21 04:22:22;;;;;;;;;;;2.70;99.90;;;;;;4978056;28;20012;-85
2022/04/21 04:25:09;;;;;;;;;;;2.60;99.90;;;;;;4986742;28;19940;-84
2022/04/21 04:27:57;;;;;;;;;;;2.50;99.90;;;;;;4993467;28;20338;-84
2022/04/21 04:30:49;;;;;;;;;;;2.40;99.90;;;;;;4999626;28;19994;-84
2022/04/21 04:33:36;;;;;;;;;;;2.50;99.90;;;;;;4973998;28;19926;-83
2022/04/21 04:36:23;;;;;;;;;;;2.50;99.90;;;;;;4987639;28;19933;-84
2022/04/21 04:47:16;;;;;;;;;;;2.20;99.90;;;;;;4896778;29;19983;-82
2022/04/21 05:12:57;;;;;;;;;;;2.50;99.90;;;;;;4993023;28;19913;-80
2022/04/21 05:15:44;;;;;;;;;;;2.60;99.90;;;;;;4990102;28;19926;-80
2022/04/21 05:18:31;;;;;;;;;;;2.70;99.90;;;;;;4992256;28;19933;-87
2022/04/21 05:21:18;;;;;;;;;;;2.80;99.90;;;;;;4997227;28;19929;-88
2022/04/21 05:24:06;;;;;;;;;;;2.90;99.90;;;;;;4999531;28;19933;-85
2022/04/21 05:26:55;;;;;;;;;;;3.00;99.90;;;;;;4998824;28;19925;-88
2022/04/21 05:32:51;;;;;;;;;;;3.10;99.90;;;;;;4996792;28;20340;-89
2022/04/21 05:35:38;;;;;;;;;;;3.20;99.90;;;;;;4996126;28;19932;-86
2022/04/21 05:38:26;;;;;;;;;;;3.40;99.90;;;;;;5007183;28;19979;-88
2022/04/21 05:41:18;;;;;;;;;;;3.50;99.90;;;;;;4989843;28;20016;-88
2022/04/21 05:44:06;;;;;;;;;;;3.80;99.90;;;;;;4996622;28;19922;-88
2022/04/21 05:47:24;;;;;;;;;;;4.10;99.90;;;;;;4995707;28;19928;-90
2022/04/21 05:50:12;;;;;;;;;;;4.30;99.90;;;;;;4997413;28;19929;-88
2022/04/21 05:53:03;;;;;;;;;;;4.50;99.90;;;;;;4977634;28;19925;-87
2022/04/21 05:55:51;;;;;;;;;;;4.70;99.90;;;;;;4998354;28;19925;-86
2022/04/21 05:58:38;;;;;;;;;;;4.90;99.90;;;;;;4989256;28;19965;-87
2022/04/21 06:01:26;;;;;;;;;;;5.00;99.90;;;;;;4997825;28;19938;-90
2022/04/21 06:04:13;;;;;;;;;;;5.10;99.90;;;;;;4981910;28;19925;-85
2022/04/21 06:07:02;;;;;;;;;;;5.30;99.90;;;;;;4976581;28;19926;-86
2022/04/21 06:09:50;;;;;;;;;;;5.40;99.90;;;;;;4996542;28;20177;-86
2022/04/21 06:12:38;;;;;;;;;;;5.50;99.90;;;;;;4987178;28;19937;-84
2022/04/21 06:15:25;;;;;;;;;;;5.60;99.90;;;;;;4978184;28;19942;-86
2022/04/21 06:18:12;;;;;;;;;;;5.70;99.90;;;;;;5005319;28;19921;-86
2022/04/21 06:21:00;;;;;;;;;;;5.90;99.90;;;;;;4996772;28;19933;-84
2022/04/21 06:23:47;;;;;;;;;;;6.10;99.90;;;;;;5003638;28;19922;-85
2022/04/21 06:26:35;;;;;;;;;;;6.40;99.90;;;;;;5000820;28;19936;-85
2022/04/21 06:29:22;;;;;;;;;;;6.50;99.90;;;;;;5005992;28;19929;-83
2022/04/21 06:32:24;;;;;;;;;;;6.80;99.90;;;;;;5007065;28;19930;-83
2022/04/21 06:35:12;;;;;;;;;;;7.00;99.90;;;;;;5009626;28;19926;-81
2022/04/21 06:38:00;;;;;;;;;;;7.10;99.90;;;;;;4999443;28;19922;-84
2022/04/21 06:40:50;;;;;;;;;;;7.40;99.90;;;;;;4994067;28;19921;-85
2022/04/21 06:49:48;;;;;;;;;;;8.20;99.90;;;;;;4999579;28;19929;-84
2022/04/21 06:52:37;;;;;;;;;;;8.50;99.90;;;;;;4991899;28;19922;-87
2022/04/21 06:55:24;;;;;;;;;;;8.60;99.90;;;;;;4986458;28;19922;-83
2022/04/21 06:58:11;;;;;;;;;;;8.70;99.90;;;;;;4997414;28;19949;-84
2022/04/21 07:00:58;;;;;;;;;;;9.10;99.90;;;;;;4992163;28;20196;-83
2022/04/21 07:03:45;;;;;;;;;;;9.40;99.90;;;;;;4993896;28;19932;-86
2022/04/21 07:06:33;;;;;;;;;;;9.60;99.90;;;;;;4994263;28;19941;-84
2022/04/21 07:09:25;;;;;;;;;;;9.80;99.90;;;;;;4991794;28;20339;-83
2022/04/21 07:12:17;;;;;;;;;;;10.10;99.90;;;;;;4982791;28;20197;-86
2022/04/21 07:15:06;;;;;;;;;;;10.50;99.90;;;;;;5003732;28;19939;-87
2022/04/21 07:17:54;;;;;;;;;;;10.80;99.90;;;;;;4987479;28;19928;-86
2022/04/21 07:20:48;;;;;;;;;;;11.20;99.40;;;;;;5016047;28;19933;-85
2022/04/21 07:23:35;;;;;;;;;;;11.90;97.00;;;;;;5004983;28;19948;-84
2022/04/21 07:26:25;;;;;;;;;;;12.30;94.60;;;;;;4995526;28;19921;-83
2022/04/21 07:29:16;;;;;;;;;;;12.40;90.90;;;;;;4995386;28;19926;-85
2022/04/21 07:32:06;;;;;;;;;;;12.30;90.40;;;;;;5011241;28;19936;-86
2022/04/21 07:34:57;;;;;;;;;;;12.80;90.20;;;;;;5004338;28;19921;-87
2022/04/21 07:37:44;;;;;;;;;;;13.00;86.60;;;;;;4995988;28;20330;-88
2022/04/21 07:40:32;;;;;;;;;;;13.20;84.50;;;;;;4994102;28;20012;-85
2022/04/21 07:43:20;;;;;;;;;;;13.70;82.20;;;;;;4993843;28;19921;-84
2022/04/21 07:46:36;;;;;;;;;;;14.20;74.10;;;;;;4985873;28;19921;-82
2022/04/21 07:55:36;;;;;;;;;;;13.90;71.80;;;;;;4987301;28;19946;-85
2022/04/21 07:58:27;;;;;;;;;;;14.00;70.70;;;;;;4984521;28;19932;-84
2022/04/21 08:01:14;;;;;;;;;;;14.70;72.40;;;;;;4994750;28;20264;-86
2022/04/21 08:04:03;;;;;;;;;;;14.90;69.50;;;;;;4995388;28;19981;-87
2022/04/21 08:06:51;;;;;;;;;;;15.30;70.10;;;;;;4993437;28;19925;-86
2022/04/21 08:09:38;;;;;;;;;;;15.40;66.60;;;;;;4986794;28;19922;-83
2022/04/21 08:12:28;;;;;;;;;;;15.20;65.00;;;;;;5002746;28;19937;-87
2022/04/21 08:15:28;;;;;;;;;;;15.20;66.50;;;;;;4993131;28;19925;-85
2022/04/21 08:18:15;;;;;;;;;;;15.40;64.00;;;;;;4998231;28;19921;-86
2022/04/21 08:21:05;;;;;;;;;;;16.00;64.40;;;;;;4999936;28;19928;-88
2022/04/21 08:33:51;;;;;;;;;;;16.50;58.00;;;;;;4989064;28;19922;-86
2022/04/21 08:36:39;;;;;;;;;;;16.50;58.00;;;;;;4983773;28;19972;-86
2022/04/21 08:39:26;;;;;;;;;;;16.60;58.90;;;;;;4994837;28;19922;-85
2022/04/21 08:42:14;;;;;;;;;;;16.80;57.60;;;;;;4990594;28;19933;-85
2022/04/21 08:45:01;;;;;;;;;;;17.00;58.10;;;;;;4991845;28;20012;-85
2022/04/21 08:47:49;;;;;;;;;;;16.80;56.40;;;;;;4998291;28;19933;-84
2022/04/21 08:50:38;;;;;;;;;;;17.10;55.80;;;;;;4980274;28;19926;-84
2022/04/21 08:53:32;;;;;;;;;;;17.30;54.80;;;;;;4988152;28;20299;-84
2022/04/21 08:56:21;;;;;;;;;;;17.50;56.30;;;;;;4983811;28;20346;-88
2022/04/21 08:59:09;;;;;;;;;;;17.20;53.40;;;;;;4997051;28;19933;-87
2022/04/21 09:01:59;;;;;;;;;;;17.60;57.30;;;;;;4998302;28;19930;-88
2022/04/21 09:04:47;;;;;;;;;;;17.60;55.00;;;;;;5006485;28;19938;-87
2022/04/21 09:07:49;;;;;;;;;;;17.60;55.40;;;;;;5022418;28;19949;-88
2022/04/21 09:11:17;;;;;;;;;;;17.80;53.00;;;;;;5003734;28;19933;-86
2022/04/21 09:14:12;;;;;;;;;;;17.40;52.80;;;;;;4986783;28;19921;-87
2022/04/21 09:17:04;;;;;;;;;;;17.80;55.20;;;;;;5011011;28;19941;-86
2022/04/21 09:20:10;;;;;;;;;;;18.10;53.90;;;;;;5009648;28;19929;-86
2022/04/21 09:23:07;;;;;;;;;;;18.90;52.20;;;;;;5003991;28;19925;-84
2022/04/21 09:25:54;;;;;;;;;;;18.90;48.80;;;;;;4992071;28;19962;-87
2022/04/21 09:28:42;;;;;;;;;;;18.90;50.30;;;;;;5006943;28;19970;-86
2022/04/21 09:31:29;;;;;;;;;;;19.00;51.80;;;;;;5006413;28;19929;-83
2022/04/21 09:34:29;;;;;;;;;;;19.10;49.50;;;;;;4982496;28;19925;-83
2022/04/21 09:37:19;;;;;;;;;;;19.40;50.70;;;;;;4986720;28;19928;-82
2022/04/21 09:40:12;;;;;;;;;;;19.20;48.60;;;;;;5001221;28;19921;-84
2022/04/21 09:43:01;;;;;;;;;;;19.00;48.40;;;;;;4998910;28;20300;-82
2022/04/21 09:48:54;;;;;;;;;;;19.50;49.50;;;;;;4992182;28;19921;-80
2022/04/21 09:51:45;;;;;;;;;;;19.60;49.20;;;;;;4982940;28;20307;-82
2022/04/21 09:54:35;;;;;;;;;;;19.90;50.20;;;;;;5021148;28;19922;-80
2022/04/21 09:57:31;;;;;;;;;;;20.10;47.70;;;;;;5008459;28;19921;-82
2022/04/21 10:00:29;;;;;;;;;;;21.00;47.60;;;;;;4992190;28;19949;-82
2022/04/21 10:03:17;;;;;;;;;;;20.80;47.00;;;;;;4999328;28;19922;-82
2022/04/21 10:06:04;;;;;;;;;;;20.60;48.10;;;;;;4999902;28;19922;-83
2022/04/21 10:08:51;;;;;;;;;;;20.60;48.00;;;;;;5000778;28;19922;-83
2022/04/21 10:11:42;;;;;;;;;;;20.60;49.20;;;;;;4992065;28;19921;-84
2022/04/21 10:14:29;;;;;;;;;;;21.10;46.80;;;;;;5161548;23;20276;-78
2022/04/21 10:17:17;;;;;;;;;;;20.90;46.90;;;;;;4975613;28;19921;-83
2022/04/21 10:20:07;;;;;;;;;;;21.20;46.20;;;;;;4974453;28;19926;-83
2022/04/21 10:22:57;;;;;;;;;;;20.60;47.40;;;;;;4985777;28;19933;-87
2022/04/21 10:25:44;;;;;;;;;;;20.20;47.60;;;;;;4984451;28;19933;-85
2022/04/21 10:28:35;;;;;;;;;;;20.40;46.30;;;;;;4982073;28;19922;-87
2022/04/21 10:31:25;;;;;;;;;;;20.70;46.10;;;;;;4978745;28;20279;-85
2022/04/21 10:34:46;;;;;;;;;;;20.40;46.20;;;;;;4960619;28;19937;-85
2022/04/21 10:37:34;;;;;;;;;;;20.70;48.70;;;;;;4952139;28;19985;-85
2022/04/21 10:40:23;;;;;;;;;;;20.60;47.80;;;;;;4974603;28;20017;-87
2022/04/21 10:43:11;;;;;;;;;;;21.40;47.20;;;;;;4961368;28;19922;-85
2022/04/21 10:46:04;;;;;;;;;;;21.40;46.00;;;;;;4979305;28;19940;-87
2022/04/21 10:48:52;;;;;;;;;;;21.20;42.10;;;;;;4978698;28;20125;-87
2022/04/21 10:57:12;;;;;;;;;;;20.30;47.40;;;;;;4976649;28;19922;-87
2022/04/21 10:57:58;;;;;;;;;;;20.30;45.80;;;;;;4976823;28;19926;-85
2022/04/21 11:01:08;;;;;;;;;;;21.30;43.30;;;;;;4959994;28;19941;-87
2022/04/21 11:04:05;;;;;;;;;;;21.00;44.20;;;;;;4961936;28;20017;-84
2022/04/21 11:07:04;;;;;;;;;;;20.40;46.10;;;;;;4976500;28;19933;-86
2022/04/21 11:09:51;;;;;;;;;;;20.70;46.50;;;;;;4972963;28;20017;-87
2022/04/21 11:12:58;;;;;;;;;;;21.70;44.90;;;;;;4945241;28;19984;-86
2022/04/21 11:15:49;;;;;;;;;;;22.00;43.80;;;;;;4977218;28;19933;-84
2022/04/21 11:18:37;;;;;;;;;;;21.70;44.60;;;;;;4977668;28;20219;-87
2022/04/21 11:21:28;;;;;;;;;;;22.00;41.50;;;;;;4977000;28;20332;-83
2022/04/21 11:24:15;;;;;;;;;;;22.50;44.40;;;;;;4977364;28;20011;-83
2022/04/21 11:27:03;;;;;;;;;;;22.00;43.40;;;;;;4972413;28;19926;-83
2022/04/21 11:29:50;;;;;;;;;;;20.90;44.30;;;;;;4988340;28;19922;-85
2022/04/21 11:32:40;;;;;;;;;;;21.50;42.50;;;;;;4976823;28;20053;-83
2022/04/21 11:35:28;;;;;;;;;;;21.30;44.10;;;;;;4974895;28;19940;-83
2022/04/21 11:38:16;;;;;;;;;;;20.60;46.10;;;;;;4975900;28;19928;-85
2022/04/21 11:41:07;;;;;;;;;;;21.30;46.00;;;;;;4980401;28;19937;-81
2022/04/21 11:43:55;;;;;;;;;;;21.80;43.20;;;;;;4976067;28;20071;-84
2022/04/21 11:46:42;;;;;;;;;;;21.50;43.40;;;;;;4977571;28;19925;-85
2022/04/21 11:49:30;;;;;;;;;;;21.30;44.90;;;;;;4967797;28;20005;-84
2022/04/21 11:52:25;;;;;;;;;;;20.30;45.60;;;;;;4961372;28;19940;-84
2022/04/21 11:55:15;;;;;;;;;;;21.10;47.30;;;;;;4964100;28;20343;-86
2022/04/21 11:58:03;;;;;;;;;;;22.00;44.80;;;;;;4974280;28;19981;-84
2022/04/21 12:07:08;;;;;;;;;;;21.60;46.00;;;;;;4969875;28;19926;-86
2022/04/21 12:09:58;;;;;;;;;;;20.80;44.60;;;;;;4978772;28;19970;-87
2022/04/21 12:12:48;;;;;;;;;;;20.20;47.00;;;;;;4976017;28;20012;-84
2022/04/21 12:15:39;;;;;;;;;;;20.50;46.80;;;;;;4977948;28;19922;-83
2022/04/21 12:18:26;;;;;;;;;;;21.80;45.50;;;;;;4978443;28;19922;-83
2022/04/21 12:21:20;;;;;;;;;;;22.50;43.40;;;;;;4976795;28;19921;-84
2022/04/21 12:24:15;;;;;;;;;;;22.50;43.20;;;;;;4984908;28;19922;-82
2022/04/21 12:27:05;;;;;;;;;;;21.70;43.90;;;;;;4988880;28;19926;-83
2022/04/21 12:29:58;;;;;;;;;;;21.80;43.90;;;;;;4966854;28;19922;-85
2022/04/21 12:32:47;;;;;;;;;;;22.10;43.90;;;;;;4978307;28;19922;-86
2022/04/21 12:35:43;;;;;;;;;;;23.10;43.40;;;;;;4976557;28;19937;-87
2022/04/21 12:41:36;;;;;;;;;;;23.90;40.30;;;;;;4975401;28;19922;-85
2022/04/21 12:44:25;;;;;;;;;;;24.30;41.30;;;;;;4970062;28;19922;-83
2022/04/21 12:47:17;;;;;;;;;;;23.60;39.60;;;;;;4954119;29;19934;-83
2022/04/21 12:50:08;;;;;;;;;;;22.00;41.50;;;;;;4961975;28;20024;-85
2022/04/21 12:52:56;;;;;;;;;;;21.10;43.60;;;;;;4988575;28;19921;-85
2022/04/21 12:55:49;;;;;;;;;;;21.90;45.20;;;;;;4976474;28;19926;-86
2022/04/21 12:58:36;;;;;;;;;;;22.90;42.00;;;;;;4961852;28;19926;-86
2022/04/21 13:01:23;;;;;;;;;;;22.40;41.10;;;;;;4978199;28;20311;-85
2022/04/21 13:04:11;;;;;;;;;;;21.70;42.00;;;;;;4970589;28;19941;-82
2022/04/21 13:06:58;;;;;;;;;;;21.40;43.30;;;;;;4987398;28;20105;-81
2022/04/21 13:09:46;;;;;;;;;;;21.70;43.10;;;;;;4974286;28;20031;-84
2022/04/21 13:12:33;;;;;;;;;;;22.30;42.70;;;;;;4979881;28;19933;-82
2022/04/21 13:15:21;;;;;;;;;;;23.10;42.60;;;;;;4977675;28;19922;-84
2022/04/21 13:18:09;;;;;;;;;;;23.40;39.60;;;;;;4984659;28;20337;-84
2022/04/21 13:24:02;;;;;;;;;;;23.90;40.00;;;;;;4973386;28;20343;-85
2022/04/21 13:26:53;;;;;;;;;;;23.00;40.00;;;;;;4959489;28;19936;-84
2022/04/21 13:29:40;;;;;;;;;;;22.40;41.30;;;;;;4974029;28;19922;-86
2022/04/21 13:35:33;;;;;;;;;;;21.60;44.50;;;;;;4976264;28;19937;-87
2022/04/21 13:38:21;;;;;;;;;;;22.90;40.40;;;;;;4966367;28;19922;-83
2022/04/21 13:41:09;;;;;;;;;;;22.70;41.00;;;;;;4984520;28;20321;-83
2022/04/21 13:43:56;;;;;;;;;;;22.50;41.30;;;;;;4979454;28;19933;-83
2022/04/21 13:47:05;;;;;;;;;;;23.00;41.80;;;;;;4977030;28;20596;-86
2022/04/21 13:49:52;;;;;;;;;;;22.40;41.50;;;;;;4977329;28;20319;-86
2022/04/21 13:52:41;;;;;;;;;;;22.40;41.00;;;;;;4983323;28;19922;-86
2022/04/21 13:55:32;;;;;;;;;;;23.50;40.30;;;;;;4996096;28;20319;-86
2022/04/21 13:58:19;;;;;;;;;;;24.50;37.10;;;;;;4977803;28;20260;-85
2022/04/21 14:01:06;;;;;;;;;;;24.20;39.50;;;;;;4978651;28;19933;-89
2022/04/21 14:03:54;;;;;;;;;;;24.20;39.60;;;;;;4974466;28;19929;-83
2022/04/21 14:06:42;;;;;;;;;;;23.10;38.60;;;;;;4977215;28;19951;-84
2022/04/21 14:09:29;;;;;;;;;;;21.00;42.10;;;;;;4963897;28;19922;-86
2022/04/21 14:12:20;;;;;;;;;;;20.60;45.20;;;;;;4962045;28;19922;-84
2022/04/21 14:15:08;;;;;;;;;;;21.40;42.80;;;;;;4964887;28;19977;-85
2022/04/21 14:17:58;;;;;;;;;;;22.20;42.40;;;;;;4988634;28;20021;-83
2022/04/21 14:20:47;;;;;;;;;;;22.40;42.20;;;;;;4986937;28;19953;-85
2022/04/21 14:23:36;;;;;;;;;;;23.50;41.60;;;;;;4982334;28;19968;-86
2022/04/21 14:26:24;;;;;;;;;;;24.50;40.30;;;;;;4987988;28;20002;-87
2022/04/21 14:29:11;;;;;;;;;;;24.70;38.50;;;;;;4982670;28;19933;-85
2022/04/21 14:32:00;;;;;;;;;;;24.20;39.60;;;;;;4967849;28;20008;-85
2022/04/21 14:34:48;;;;;;;;;;;23.30;39.10;;;;;;4980063;28;19922;-87
2022/04/21 14:44:08;;;;;;;;;;;24.10;40.20;;;;;;4979213;28;19985;-83
2022/04/21 14:46:56;;;;;;;;;;;24.30;39.30;;;;;;4973034;28;20239;-83
2022/04/21 14:50:05;;;;;;;;;;;23.40;40.00;;;;;;4979897;28;19922;-81
2022/04/21 14:52:53;;;;;;;;;;;22.70;40.00;;;;;;4971276;28;19932;-83
2022/04/21 14:55:40;;;;;;;;;;;22.00;42.00;;;;;;4996764;28;19921;-83
2022/04/21 14:58:27;;;;;;;;;;;20.30;43.70;;;;;;4986743;28;19938;-85
2022/04/21 15:01:17;;;;;;;;;;;19.30;44.50;;;;;;4984480;28;19998;-86
2022/04/21 15:04:05;;;;;;;;;;;17.90;48.30;;;;;;4979887;28;20006;-83
2022/04/21 15:06:53;;;;;;;;;;;17.20;50.10;;;;;;4985851;28;20016;-86
2022/04/21 15:09:41;;;;;;;;;;;17.00;51.90;;;;;;4995432;28;19944;-83
2022/04/21 15:12:29;;;;;;;;;;;17.80;49.80;;;;;;4978874;28;19993;-85
2022/04/21 15:15:17;;;;;;;;;;;17.90;50.30;;;;;;4980255;28;20037;-85
2022/04/21 15:18:05;;;;;;;;;;;17.80;50.20;;;;;;4980512;28;19926;-85
2022/04/21 15:20:52;;;;;;;;;;;17.50;50.20;;;;;;4986235;28;19922;-82
2022/04/21 15:23:43;;;;;;;;;;;17.60;50.10;;;;;;4975987;28;19926;-84
2022/04/21 15:26:30;;;;;;;;;;;17.10;50.30;;;;;;4982390;28;19922;-85
2022/04/21 15:29:20;;;;;;;;;;;17.10;52.00;;;;;;4979840;28;19933;-87
2022/04/21 15:32:07;;;;;;;;;;;16.80;53.10;;;;;;4979233;28;19929;-84
2022/04/21 15:34:55;;;;;;;;;;;16.30;52.80;;;;;;4968842;28;19926;-84
2022/04/21 15:37:43;;;;;;;;;;;16.90;52.40;;;;;;4967025;28;19922;-85
2022/04/21 15:40:33;;;;;;;;;;;17.60;49.60;;;;;;4980899;28;19976;-84
2022/04/21 15:43:20;;;;;;;;;;;17.20;50.50;;;;;;4963562;28;20009;-83
2022/04/21 15:46:08;;;;;;;;;;;17.40;51.40;;;;;;4979211;28;19961;-84
2022/04/21 15:48:57;;;;;;;;;;;17.20;50.40;;;;;;4967689;28;20021;-82
2022/04/21 15:51:46;;;;;;;;;;;16.50;52.20;;;;;;4980470;28;19922;-84
2022/04/21 16:00:47;;;;;;;;;;;15.70;53.30;;;;;;4977766;28;19936;-82
2022/04/21 16:03:34;;;;;;;;;;;15.60;55.50;;;;;;4979513;28;19933;-84
2022/04/21 16:06:24;;;;;;;;;;;15.80;55.40;;;;;;4979455;28;19929;-81
2022/04/21 16:09:13;;;;;;;;;;;15.80;55.10;;;;;;4959570;28;19973;-83
2022/04/21 16:12:04;;;;;;;;;;;15.80;55.60;;;;;;4978464;28;20080;-83
2022/04/21 16:14:51;;;;;;;;;;;15.80;54.10;;;;;;4980699;28;20029;-85
2022/04/21 16:17:38;;;;;;;;;;;15.70;54.90;;;;;;4986199;28;19926;-83
2022/04/21 16:20:26;;;;;;;;;;;15.70;54.70;;;;;;4973619;28;19930;-85
2022/04/21 16:23:13;;;;;;;;;;;15.70;55.00;;;;;;4997904;28;19922;-87
2022/04/21 16:26:00;;;;;;;;;;;15.60;54.90;;;;;;4970682;28;19922;-83
2022/04/21 16:28:50;;;;;;;;;;;15.50;55.20;;;;;;4959010;29;20080;-82
2022/04/21 16:31:38;;;;;;;;;;;15.30;54.20;;;;;;4980508;28;19988;-82
2022/04/21 16:34:28;;;;;;;;;;;15.00;54.60;;;;;;4989844;28;19968;-81
2022/04/21 16:37:16;;;;;;;;;;;14.70;55.00;;;;;;5003097;28;19926;-82
2022/04/21 16:40:06;;;;;;;;;;;14.70;55.70;;;;;;4990600;28;19951;-83
2022/04/21 16:42:54;;;;;;;;;;;14.70;55.70;;;;;;4994265;28;19929;-81
2022/04/21 16:45:47;;;;;;;;;;;14.50;55.40;;;;;;4975863;28;19939;-86
2022/04/21 16:48:35;;;;;;;;;;;14.50;56.40;;;;;;4987107;28;19985;-84
2022/04/21 16:51:22;;;;;;;;;;;14.40;56.60;;;;;;4995475;28;19910;-82
2022/04/21 16:56:45;;;;;;;;;;;14.20;56.60;;;;;;5160111;23;19910;-80
2022/04/21 16:59:33;;;;;;;;;;;14.10;57.30;;;;;;4995591;28;19909;-82
2022/04/21 17:05:07;;;;;;;;;;;13.90;57.70;;;;;;5439338;23;19954;-84
2022/04/21 17:07:55;;;;;;;;;;;13.90;58.00;;;;;;5002072;28;19991;-85
2022/04/21 17:10:46;;;;;;;;;;;13.80;58.60;;;;;;5004467;28;19945;-81
2022/04/21 17:13:33;;;;;;;;;;;13.70;58.80;;;;;;4990711;28;19922;-82
2022/04/21 17:16:21;;;;;;;;;;;13.70;58.20;;;;;;4986221;28;19990;-81
2022/04/21 17:19:10;;;;;;;;;;;13.70;58.10;;;;;;4967228;29;20009;-83
2022/04/21 17:21:58;;;;;;;;;;;13.70;58.20;;;;;;4969596;28;19934;-84
2022/04/21 17:24:48;;;;;;;;;;;13.60;58.40;;;;;;4985501;28;19941;-85
2022/04/21 17:27:38;;;;;;;;;;;13.50;58.80;;;;;;4965175;28;20380;-85
2022/04/21 17:30:25;;;;;;;;;;;13.40;58.80;;;;;;4961241;28;19941;-85
2022/04/21 17:33:13;;;;;;;;;;;13.40;59.30;;;;;;4975092;28;19933;-84
2022/04/21 17:36:00;;;;;;;;;;;13.30;59.10;;;;;;4964134;28;19993;-82
2022/04/21 17:38:50;;;;;;;;;;;13.30;59.20;;;;;;4983934;28;19940;-82
2022/04/21 17:41:37;;;;;;;;;;;13.10;59.70;;;;;;4993496;28;19922;-82
2022/04/21 17:44:24;;;;;;;;;;;13.10;59.70;;;;;;4983812;28;19933;-85
2022/04/21 17:47:12;;;;;;;;;;;13.00;59.90;;;;;;4976397;28;19930;-86
2022/04/21 17:49:59;;;;;;;;;;;12.90;60.30;;;;;;4976325;28;19957;-86
2022/04/21 17:52:47;;;;;;;;;;;12.90;60.60;;;;;;4955396;28;20195;-84
2022/04/21 17:55:34;;;;;;;;;;;12.90;60.50;;;;;;4978455;28;19922;-86
2022/04/21 17:58:22;;;;;;;;;;;12.80;60.80;;;;;;4981329;28;20008;-87
2022/04/21 18:01:10;;;;;;;;;;;12.70;60.80;;;;;;4976372;28;19922;-83
2022/04/21 18:03:59;;;;;;;;;;;12.60;61.70;;;;;;4975481;28;20305;-82
2022/04/21 18:06:47;;;;;;;;;;;12.50;62.20;;;;;;4972517;28;19961;-85
2022/04/21 18:09:34;;;;;;;;;;;12.50;62.90;;;;;;4975908;28;19978;-85
2022/04/21 18:12:22;;;;;;;;;;;12.20;64.10;;;;;;4974030;28;20281;-82
2022/04/21 18:15:09;;;;;;;;;;;12.10;64.50;;;;;;4984468;28;19996;-85
2022/04/21 18:18:00;;;;;;;;;;;12.00;64.40;;;;;;4974408;28;20263;-85
2022/04/21 18:20:49;;;;;;;;;;;11.90;64.90;;;;;;4987418;28;19921;-83
2022/04/21 18:23:37;;;;;;;;;;;11.70;66.20;;;;;;4974297;28;19922;-83